Aviation Digital Data Service (ADDS)

Output produced by METARs form (1313 UTC 24 January 2017)
found at http://aviationweather.gov/adds/metars/
 
KHKY 241120Z 2412/2512 29006KT P6SM FEW250 
     FM241600 31010KT P6SM SKC 
     FM242200 28006KT P6SM SKC 
     FM250500 VRB02KT P6SM SKC